Time;durP1;ratioP1;P1;durP2;ratioP2;P2;SDS_P1;SDS_P2;PMS_P1;PMS_P2;Temp;Humidity;BMP_temperature;BMP_pressure;BME280_temperature;BME280_humidity;BME280_pressure;Samples;Min_cycle;Max_cycle;Signal;HPM_P1;HPM_P2
2021/05/24 00:00:45;;;;;;;4.60;0.90;;;17.00;75.80;;;;;;11995470;28;20067;-77
2021/05/24 00:06:32;;;;;;;6.15;1.20;;;17.10;75.20;;;;;;11994040;28;20198;-78
2021/05/24 00:12:25;;;;;;;6.65;0.80;;;17.10;75.50;;;;;;11998806;28;20063;-78
2021/05/24 00:18:12;;;;;;;4.33;1.43;;;17.20;75.90;;;;;;12003643;28;20049;-77
2021/05/24 00:23:59;;;;;;;5.00;0.98;;;17.00;76.30;;;;;;12000532;28;20044;-77
2021/05/24 00:29:45;;;;;;;5.43;0.85;;;16.90;76.80;;;;;;11979533;28;20068;-77
2021/05/24 00:35:33;;;;;;;5.32;1.23;;;16.40;78.40;;;;;;11998682;28;20068;-77
2021/05/24 00:41:20;;;;;;;7.28;1.00;;;16.40;79.30;;;;;;11999364;28;20064;-77
2021/05/24 00:47:06;;;;;;;6.47;0.73;;;16.50;79.70;;;;;;12004088;28;20053;-77
2021/05/24 00:52:53;;;;;;;4.10;0.95;;;16.40;79.40;;;;;;12005377;28;20049;-78
2021/05/24 00:58:40;;;;;;;3.97;0.98;;;16.30;80.10;;;;;;12003718;28;20053;-78
2021/05/24 01:04:26;;;;;;;4.72;0.93;;;16.30;80.00;;;;;;12005169;28;20080;-78
2021/05/24 01:10:13;;;;;;;4.20;0.80;;;16.30;80.10;;;;;;12006815;28;20056;-78
2021/05/24 01:16:00;;;;;;;1.55;0.70;;;16.30;80.40;;;;;;12003618;28;20050;-79
2021/05/24 01:21:48;;;;;;;2.00;0.63;;;16.40;79.30;;;;;;12003191;28;20059;-78
2021/05/24 01:27:34;;;;;;;6.55;0.90;;;16.30;79.00;;;;;;12002000;28;20059;-77
2021/05/24 01:33:21;;;;;;;3.85;1.00;;;16.20;79.70;;;;;;12000670;28;20106;-77
2021/05/24 01:39:09;;;;;;;10.80;0.80;;;16.00;80.70;;;;;;11999263;28;20064;-78
2021/05/24 01:44:55;;;;;;;3.70;1.20;;;16.20;80.90;;;;;;11999539;28;20044;-78
2021/05/24 06:57:55;;;;;;;4.13;2.03;;;13.50;99.90;;;;;;12079386;27;20368;-77
2021/05/24 07:03:42;;;;;;;5.40;1.77;;;13.90;99.90;;;;;;12026112;28;20064;-77
2021/05/24 07:09:28;;;;;;;5.22;1.95;;;14.70;99.90;;;;;;12049382;28;20059;-76
2021/05/24 07:15:16;;;;;;;4.30;1.70;;;15.10;99.90;;;;;;12027347;28;20040;-77
2021/05/24 07:21:04;;;;;;;3.85;1.75;;;15.20;99.90;;;;;;12024947;28;20053;-77
2021/05/24 07:26:51;;;;;;;3.63;1.63;;;15.40;99.90;;;;;;12046936;28;20052;-77
2021/05/24 07:32:38;;;;;;;3.60;1.70;;;15.40;99.90;;;;;;12030390;28;20053;-76
2021/05/24 07:38:24;;;;;;;5.65;1.75;;;15.60;99.90;;;;;;12042969;28;20527;-77
2021/05/24 07:44:11;;;;;;;3.65;1.65;;;15.80;99.90;;;;;;12052872;28;20056;-77
2021/05/24 07:49:58;;;;;;;3.75;1.85;;;15.80;99.90;;;;;;12035037;28;20037;-78
2021/05/24 07:55:44;;;;;;;5.60;1.60;;;16.00;99.90;;;;;;12039203;28;20048;-78
2021/05/24 08:01:31;;;;;;;2.95;1.88;;;15.80;99.90;;;;;;12073203;28;20049;-78
2021/05/24 08:07:19;;;;;;;3.78;1.50;;;15.50;99.90;;;;;;12007555;28;20052;-81
2021/05/24 08:13:05;;;;;;;5.53;2.08;;;15.40;99.90;;;;;;12004722;28;20044;-80
2021/05/24 08:18:51;;;;;;;6.72;2.10;;;15.50;99.90;;;;;;12018487;28;20049;-80
2021/05/24 08:24:39;;;;;;;3.63;1.77;;;15.70;99.90;;;;;;11998942;28;20053;-80
2021/05/24 08:30:27;;;;;;;5.35;1.88;;;15.70;99.90;;;;;;12005187;28;20052;-82
2021/05/24 08:36:14;;;;;;;4.40;2.05;;;16.20;99.90;;;;;;12048626;28;20071;-80
2021/05/24 08:42:01;;;;;;;6.70;1.70;;;16.30;99.90;;;;;;12049063;28;20059;-80
2021/05/24 08:47:49;;;;;;;7.07;2.05;;;16.40;99.90;;;;;;12044670;28;20066;-80
2021/05/24 08:53:37;;;;;;;5.75;1.50;;;16.40;99.90;;;;;;12021869;28;20056;-80
2021/05/24 08:59:26;;;;;;;11.18;5.05;;;16.40;99.90;;;;;;12009333;28;20592;-82
2021/05/24 09:05:13;;;;;;;8.38;2.42;;;16.30;99.90;;;;;;12018561;28;20044;-79
2021/05/24 09:10:59;;;;;;;5.22;1.88;;;16.50;99.90;;;;;;12015722;28;20451;-80
2021/05/24 09:16:55;;;;;;;5.72;2.20;;;16.50;99.90;;;;;;12034895;28;20060;-82
2021/05/24 09:22:41;;;;;;;6.47;1.50;;;16.60;99.90;;;;;;12038450;28;20053;-80
2021/05/24 09:28:42;;;;;;;7.97;2.13;;;16.60;99.90;;;;;;12035186;28;20786;-81
2021/05/24 09:34:29;;;;;;;4.00;1.98;;;16.90;99.90;;;;;;12036880;28;21801;-81
2021/05/24 09:40:21;;;;;;;6.28;1.88;;;17.30;99.90;;;;;;12040959;28;20044;-81
2021/05/24 09:46:10;;;;;;;5.57;1.95;;;17.10;99.40;;;;;;12040538;28;20059;-80
2021/05/24 09:51:58;;;;;;;6.75;1.63;;;16.60;99.90;;;;;;12010415;28;20140;-80
2021/05/24 09:57:55;;;;;;;7.28;1.90;;;16.70;99.90;;;;;;12021882;28;20049;-80
2021/05/24 10:03:42;;;;;;;7.05;1.85;;;16.70;99.90;;;;;;12014064;28;20519;-80
2021/05/24 10:09:32;;;;;;;5.85;1.77;;;17.20;99.60;;;;;;12036512;28;20110;-79
2021/05/24 10:15:20;;;;;;;10.43;2.72;;;17.00;98.90;;;;;;12044977;28;20056;-81
2021/05/24 10:21:07;;;;;;;3.97;1.80;;;16.50;99.70;;;;;;12032694;28;20164;-77
2021/05/24 10:26:56;;;;;;;4.78;1.73;;;16.70;99.90;;;;;;12025985;28;20944;-78
2021/05/24 10:32:53;;;;;;;8.20;2.00;;;17.20;99.90;;;;;;12026292;28;20076;-76
2021/05/24 10:38:40;;;;;;;6.13;2.00;;;17.50;98.50;;;;;;12031349;28;20056;-75
2021/05/24 10:44:42;;;;;;;13.52;2.75;;;16.80;99.90;;;;;;12034174;28;20052;-76
2021/05/24 10:50:31;;;;;;;4.22;2.00;;;16.60;99.90;;;;;;12033236;28;20048;-76
2021/05/24 10:56:18;;;;;;;4.90;1.90;;;15.90;99.90;;;;;;12030421;28;20055;-75
2021/05/24 11:02:08;;;;;;;8.80;2.35;;;16.00;99.90;;;;;;12026366;28;21106;-75
2021/05/24 11:07:59;;;;;;;4.68;1.67;;;16.30;99.90;;;;;;11982941;28;20045;-78
2021/05/24 11:13:53;;;;;;;7.05;2.05;;;16.60;99.90;;;;;;12039736;28;20106;-77
2021/05/24 11:19:42;;;;;;;8.68;1.80;;;17.10;99.90;;;;;;12042908;28;20048;-79
2021/05/24 11:31:52;;;;;;;14.75;6.30;;;17.30;99.00;;;;;;12021548;28;20499;-73
2021/05/24 11:37:43;;;;;;;4.78;1.70;;;17.50;98.40;;;;;;12027953;28;20048;-74
2021/05/24 11:43:30;;;;;;;7.28;2.13;;;17.70;97.40;;;;;;12031312;28;20049;-73
2021/05/24 11:49:18;;;;;;;6.97;1.88;;;18.00;95.00;;;;;;12038593;28;20149;-76
2021/05/24 11:55:12;;;;;;;9.25;1.88;;;18.00;92.30;;;;;;12041494;28;20053;-75
2021/05/24 12:01:05;;;;;;;11.52;1.92;;;18.20;91.60;;;;;;12037397;28;20527;-77
2021/05/24 12:06:53;;;;;;;11.20;1.58;;;18.10;87.60;;;;;;12031593;28;20524;-75
2021/05/24 12:12:42;;;;;;;7.85;1.45;;;18.00;89.70;;;;;;12037025;28;20046;-75
2021/05/24 12:18:29;;;;;;;8.95;1.73;;;18.50;88.50;;;;;;12035406;28;20053;-76
2021/05/24 12:24:18;;;;;;;9.35;1.80;;;18.40;87.90;;;;;;12037311;28;20148;-74
2021/05/24 12:30:19;;;;;;;11.90;2.40;;;17.90;86.50;;;;;;12033223;28;20507;-74
2021/05/24 12:36:05;;;;;;;10.85;1.90;;;17.70;87.90;;;;;;12037941;28;20411;-75
2021/05/24 12:41:55;;;;;;;10.20;1.70;;;17.20;91.00;;;;;;12010797;28;20061;-78
2021/05/24 12:47:42;;;;;;;8.98;1.85;;;16.90;92.60;;;;;;12045470;28;20055;-76
2021/05/24 12:53:29;;;;;;;7.28;1.90;;;16.70;95.20;;;;;;12041453;28;20045;-77
2021/05/24 12:59:17;;;;;;;6.13;1.88;;;16.60;95.50;;;;;;12042228;28;20527;-76
2021/05/24 13:05:12;;;;;;;7.78;1.67;;;16.60;96.00;;;;;;12029771;28;20048;-75
2021/05/24 13:11:01;;;;;;;8.90;1.40;;;16.20;95.90;;;;;;12031613;28;20062;-75
2021/05/24 13:17:14;;;;;;;7.13;2.13;;;16.30;95.30;;;;;;12033324;28;20102;-74
2021/05/24 13:23:37;;;;;;;7.15;1.70;;;16.20;95.10;;;;;;12035720;28;20049;-75
2021/05/24 13:29:31;;;;;;;5.30;1.40;;;16.10;95.00;;;;;;12033540;28;20075;-76
2021/05/24 13:35:24;;;;;;;;;;;16.40;94.90;;;;;;12033796;28;20052;-75
2021/05/24 13:41:11;;;;;;;8.23;1.23;;;16.90;93.20;;;;;;12039155;28;19925;-75
2021/05/24 13:47:00;;;;;;;8.35;1.67;;;16.70;91.80;;;;;;12040988;28;20267;-76
2021/05/24 13:52:47;;;;;;;8.73;1.80;;;16.50;92.00;;;;;;12039469;28;20133;-74
2021/05/24 13:58:34;;;;;;;10.43;2.00;;;16.90;92.10;;;;;;12037688;28;20048;-75
2021/05/24 14:04:21;;;;;;;7.05;2.03;;;17.40;90.70;;;;;;12038206;28;20052;-74
2021/05/24 14:10:08;;;;;;;13.38;1.77;;;17.70;90.00;;;;;;12036640;28;20052;-74
2021/05/24 14:15:55;;;;;;;10.13;1.60;;;17.80;89.70;;;;;;12038651;28;20056;-75
2021/05/24 14:21:42;;;;;;;3.35;0.82;;;18.00;88.30;;;;;;12038509;28;20052;-75
2021/05/24 14:27:28;;;;;;;3.15;0.98;;;15.70;92.20;;;;;;12033575;28;20051;-76
2021/05/24 14:33:16;;;;;;;3.00;0.95;;;14.00;99.60;;;;;;12041857;28;20070;-76
2021/05/24 14:39:04;;;;;;;1.80;0.68;;;13.00;99.90;;;;;;12035745;28;20048;-76
2021/05/24 14:44:51;;;;;;;3.13;0.90;;;12.90;99.90;;;;;;12039954;28;20553;-77
2021/05/24 14:50:45;;;;;;;5.25;1.00;;;13.40;99.90;;;;;;12020673;28;20048;-75
2021/05/24 14:56:31;;;;;;;3.55;0.70;;;13.70;99.90;;;;;;12040663;28;20190;-81
2021/05/24 15:02:18;;;;;;;1.58;0.77;;;14.00;99.90;;;;;;12042673;28;20052;-75
2021/05/24 15:08:06;;;;;;;2.35;0.73;;;14.20;99.90;;;;;;12036834;28;20072;-76
2021/05/24 15:13:52;;;;;;;3.08;0.98;;;14.80;99.90;;;;;;12033895;28;20044;-76
2021/05/24 15:19:39;;;;;;;1.45;0.85;;;15.30;99.90;;;;;;12047677;28;20048;-82
2021/05/24 15:25:26;;;;;;;4.38;0.80;;;15.60;99.90;;;;;;12051389;28;20048;-81
2021/05/24 15:31:12;;;;;;;1.73;0.70;;;16.30;99.90;;;;;;12056178;28;20503;-80
2021/05/24 15:37:01;;;;;;;2.25;0.77;;;16.40;99.90;;;;;;12054794;28;20126;-81
2021/05/24 15:42:48;;;;;;;2.30;0.90;;;17.40;99.90;;;;;;12052613;28;20048;-82
2021/05/24 15:48:34;;;;;;;1.65;0.90;;;18.20;95.50;;;;;;12028335;28;20045;-80
2021/05/24 15:54:21;;;;;;;1.45;0.70;;;19.80;93.80;;;;;;12058455;28;20056;-81
2021/05/24 16:00:11;;;;;;;2.40;0.80;;;21.00;86.90;;;;;;12056748;28;20041;-81
2021/05/24 16:05:57;;;;;;;6.28;1.00;;;20.20;85.10;;;;;;12059390;28;20538;-81
2021/05/24 16:11:44;;;;;;;1.42;0.63;;;18.50;85.30;;;;;;12058661;28;20041;-80
2021/05/24 16:17:32;;;;;;;5.20;0.80;;;18.20;88.00;;;;;;12051459;28;20195;-81
2021/05/24 16:23:21;;;;;;;2.88;0.70;;;19.60;80.50;;;;;;12055455;28;20477;-80
2021/05/24 16:29:08;;;;;;;4.53;0.90;;;18.50;80.80;;;;;;12055408;28;21458;-81
2021/05/24 16:34:55;;;;;;;3.60;0.88;;;18.00;83.00;;;;;;12052429;28;20839;-82
2021/05/24 16:40:45;;;;;;;106.95;63.88;;;17.50;86.50;;;;;;12050835;28;20045;-83
2021/05/24 16:46:32;;;;;;;2.22;0.80;;;19.40;81.80;;;;;;12035909;28;20059;-82
2021/05/24 16:52:19;;;;;;;2.75;0.70;;;22.40;71.10;;;;;;12046692;28;20121;-81
2021/05/24 16:58:06;;;;;;;3.15;0.90;;;24.30;62.20;;;;;;12044193;28;20064;-81
2021/05/24 17:03:52;;;;;;;1.38;0.50;;;25.70;54.00;;;;;;12027704;28;20076;-79
2021/05/24 17:09:40;;;;;;;2.90;0.65;;;26.70;52.70;;;;;;12049457;28;20056;-80
2021/05/24 17:15:27;;;;;;;2.78;0.50;;;28.70;47.30;;;;;;12049281;28;20056;-80
2021/05/24 17:21:14;;;;;;;2.42;0.60;;;28.50;44.10;;;;;;12048114;28;20044;-80
2021/05/24 17:27:01;;;;;;;1.27;0.40;;;28.10;45.20;;;;;;12049771;28;20064;-81
2021/05/24 17:32:49;;;;;;;1.52;0.40;;;26.00;48.40;;;;;;12044334;28;20074;-81
2021/05/24 17:38:36;;;;;;;4.75;0.63;;;22.20;55.30;;;;;;12047712;28;20059;-80
2021/05/24 17:44:24;;;;;;;1.98;0.57;;;20.00;61.10;;;;;;12050022;28;20036;-82
2021/05/24 17:50:16;;;;;;;2.50;0.57;;;18.80;66.10;;;;;;12043955;28;20078;-81
2021/05/24 17:56:04;;;;;;;2.72;1.23;;;17.50;70.50;;;;;;12055268;28;20412;-81
2021/05/24 18:01:51;;;;;;;3.13;0.80;;;16.70;73.90;;;;;;12049694;28;20052;-80
2021/05/24 18:07:37;;;;;;;5.72;0.95;;;16.60;76.00;;;;;;12058187;28;20052;-81
2021/05/24 18:13:24;;;;;;;4.13;0.70;;;16.20;77.80;;;;;;12056566;28;20049;-81
2021/05/24 18:19:11;;;;;;;2.33;0.70;;;15.70;78.90;;;;;;12052001;28;20056;-79
2021/05/24 18:24:57;;;;;;;4.20;0.80;;;15.90;80.50;;;;;;12038183;28;20109;-79
2021/05/24 18:30:50;;;;;;;1.58;1.05;;;18.30;72.20;;;;;;12040753;28;20059;-80
2021/05/24 18:36:37;;;;;;;2.53;0.80;;;19.00;70.70;;;;;;12050358;28;20067;-79
2021/05/24 18:48:25;;;;;;;2.00;0.80;;;20.40;66.70;;;;;;12043974;28;20446;-79
2021/05/24 18:54:12;;;;;;;5.85;0.60;;;18.80;67.80;;;;;;12050851;28;20055;-80
2021/05/24 18:59:58;;;;;;;2.22;0.50;;;18.60;67.30;;;;;;12042264;28;20737;-79
2021/05/24 19:06:08;;;;;;;0.98;0.70;;;17.40;70.70;;;;;;12043743;28;20068;-79
2021/05/24 19:11:55;;;;;;;0.82;0.50;;;16.00;73.80;;;;;;12041723;28;20404;-79
2021/05/24 19:17:42;;;;;;;2.05;0.80;;;15.50;74.70;;;;;;12044169;28;20049;-79
2021/05/24 19:23:31;;;;;;;1.90;0.60;;;15.40;75.70;;;;;;12043088;28;20127;-79
2021/05/24 19:29:19;;;;;;;4.05;0.75;;;15.30;77.20;;;;;;12045416;28;20078;-78
2021/05/24 19:35:08;;;;;;;2.65;0.73;;;14.90;79.00;;;;;;12005263;28;20115;-78
2021/05/24 19:40:54;;;;;;;2.85;0.60;;;14.80;80.30;;;;;;11999335;28;20045;-78
2021/05/24 19:46:45;;;;;;;1.45;0.77;;;14.50;82.00;;;;;;11989456;28;21027;-79
2021/05/24 20:29:25;;;;;;;2.55;0.90;;;14.00;87.70;;;;;;11972587;28;20090;-76
2021/05/24 20:35:11;;;;;;;4.80;1.08;;;14.00;88.00;;;;;;12000722;28;20049;-76
2021/05/24 20:40:58;;;;;;;5.80;1.02;;;14.00;88.50;;;;;;11990478;28;20508;-76
2021/05/24 20:46:45;;;;;;;2.75;1.00;;;14.20;88.80;;;;;;12032418;28;20537;-76
2021/05/24 20:52:31;;;;;;;3.22;1.05;;;14.00;89.90;;;;;;12041611;28;20056;-77
2021/05/24 20:58:22;;;;;;;4.63;0.82;;;13.90;90.30;;;;;;12040312;28;20060;-76
2021/05/24 21:04:08;;;;;;;5.72;1.38;;;13.90;90.60;;;;;;12043421;28;20165;-76
2021/05/24 21:09:55;;;;;;;3.97;0.98;;;13.70;91.30;;;;;;12026194;28;20053;-76
2021/05/24 21:15:42;;;;;;;8.73;1.70;;;13.60;91.60;;;;;;12030220;28;20049;-76
2021/05/24 21:21:28;;;;;;;3.40;0.98;;;14.00;91.50;;;;;;12038495;28;20059;-76
2021/05/24 21:27:15;;;;;;;3.25;0.93;;;14.00;91.70;;;;;;11991244;28;20072;-76
2021/05/24 21:33:05;;;;;;;3.13;1.20;;;13.80;92.00;;;;;;12010029;28;20048;-76
2021/05/24 21:38:52;;;;;;;4.40;1.20;;;14.00;92.30;;;;;;11992765;28;20061;-75
2021/05/24 21:44:38;;;;;;;2.75;0.95;;;13.80;92.50;;;;;;11992367;28;20088;-75
2021/05/24 21:50:26;;;;;;;4.18;1.10;;;13.60;93.20;;;;;;11998872;28;20067;-75
2021/05/24 21:56:12;;;;;;;4.05;1.25;;;13.60;93.90;;;;;;11991191;28;20492;-73
2021/05/24 22:01:59;;;;;;;3.60;0.73;;;13.60;93.10;;;;;;12024931;28;20059;-73
2021/05/24 22:07:47;;;;;;;5.53;1.00;;;13.40;93.60;;;;;;12030380;28;20060;-73
2021/05/24 22:13:34;;;;;;;5.00;0.88;;;13.20;94.50;;;;;;12038487;28;20055;-81
2021/05/24 22:19:21;;;;;;;2.95;0.90;;;13.40;94.10;;;;;;12036845;28;20060;-73
2021/05/24 22:25:10;;;;;;;5.95;1.30;;;13.20;94.30;;;;;;12035414;28;20068;-73
2021/05/24 22:30:57;;;;;;;8.75;1.10;;;13.30;94.20;;;;;;12030617;28;20045;-73
2021/05/24 22:36:43;;;;;;;2.38;1.00;;;13.50;93.80;;;;;;12034099;28;20060;-73
2021/05/24 22:42:31;;;;;;;2.53;1.05;;;13.30;93.40;;;;;;12036566;28;20056;-74
2021/05/24 22:48:17;;;;;;;4.00;1.02;;;13.10;94.20;;;;;;12018532;28;20056;-73
2021/05/24 22:54:04;;;;;;;2.72;0.93;;;13.20;94.50;;;;;;12038352;28;20059;-73
2021/05/24 22:59:57;;;;;;;2.55;1.02;;;13.30;94.10;;;;;;12035453;28;20068;-73
2021/05/24 23:05:45;;;;;;;7.13;1.45;;;13.60;94.30;;;;;;12033804;28;20135;-73
2021/05/24 23:11:31;;;;;;;5.57;1.20;;;13.50;93.40;;;;;;12035445;28;20452;-73
2021/05/24 23:17:19;;;;;;;7.90;1.38;;;13.20;93.90;;;;;;12034331;28;20053;-73
2021/05/24 23:23:05;;;;;;;4.70;1.17;;;13.10;94.00;;;;;;12036350;28;20052;-73
2021/05/24 23:28:52;;;;;;;3.95;0.85;;;13.20;94.00;;;;;;12034402;28;20044;-73
2021/05/24 23:34:39;;;;;;;6.22;0.90;;;13.10;94.50;;;;;;12035592;28;20102;-73
2021/05/24 23:40:25;;;;;;;3.63;0.75;;;13.20;94.00;;;;;;12041744;28;20052;-73
2021/05/24 23:46:12;;;;;;;3.25;0.85;;;12.90;94.30;;;;;;12040807;28;20082;-73
2021/05/24 23:51:59;;;;;;;4.90;1.00;;;12.80;95.00;;;;;;12045434;28;20652;-73
2021/05/24 23:57:46;;;;;;;1.77;0.68;;;12.90;94.70;;;;;;12043366;28;20109;-73
